Flight Track Log - Related Links

Times and Time Zones

All times are in EDT time to prevent confusion due to time zone crossing. See the N575W flight status page for this flight to view local times or setup timezone preferences in your user account.

Time Position Orientation Groundspeed Altitude Reporting Facility
EDT Latitude Longitude Course Direction KTS MPH feet Rate Location/Type
Thu 04:17:50 PM 39.7000 -86.3000 131° Southeast 100 115 1,200  Level Indianapolis TRACON
Thu 04:19:20 PM 39.6667 -86.2500 131° Southeast 131 151 2,500 920 Climbing Indianapolis TRACON
Thu 04:20:20 PM 39.6500 -86.2167 123° Southeast 133 153 3,500 950 Climbing Indianapolis TRACON
Thu 04:21:20 PM 39.6500 -86.1667 90° East 124 143 4,400 947 Climbing Indianapolis TRACON
Thu 04:22:14 PM 39.6500 -86.1333 90° East 120 138 5,300 950 Climbing Indianapolis TRACON
Thu 04:23:20 PM 39.6667 -86.0833 67° East 124 143 6,300 905 Climbing Indianapolis TRACON
Thu 04:24:20 PM 39.6833 -86.0500 57° Northeast 127 146 7,200 900 Climbing Indianapolis TRACON
Thu 04:25:20 PM 39.7000 -86.0167 57° Northeast 130 150 8,100 947 Climbing Indianapolis TRACON
Thu 04:26:14 PM 39.7167 -85.9667 67° East 133 153 9,000 1,000 Climbing Indianapolis TRACON
Thu 04:27:14 PM 39.7333 -85.9333 57° Northeast 135 155 10,000 947 Climbing Indianapolis TRACON
Thu 04:28:08 PM 39.7333 -85.8833 90° East 138 159 10,800 698 Climbing Indianapolis TRACON
Thu 04:28:40 PM 39.7408 -85.8697 54° Northeast 138 159 11,000 128 Climbing Indianapolis Center
Thu 04:29:42 PM 39.7583 -85.7986 72° East 172 198 11,000  Level Indianapolis Center
Thu 04:30:44 PM 39.7722 -85.7336 74° East 186 214 11,000  Level Indianapolis Center
Thu 04:31:46 PM 39.7881 -85.6675 73° East 191 220 11,000  Level Indianapolis Center
Thu 04:32:48 PM 39.8031 -85.6011 74° East 193 222 11,000  Level Indianapolis Center
Thu 04:33:50 PM 39.8181 -85.5342 74° East 194 223 11,000 48 Level Indianapolis Center
Thu 04:34:52 PM 39.8333 -85.4669 73° East 195 224 11,100 629 Climbing Indianapolis Center
Thu 04:35:54 PM 39.8489 -85.3983 74° East 163 188 12,300 919 Climbing Indianapolis Center
Thu 04:36:56 PM 39.8608 -85.3447 74° East 154 177 13,000 339 Climbing Indianapolis Center
Thu 04:37:58 PM 39.8758 -85.2822 73° East 178 205 13,000  Level Indianapolis Center
Thu 04:39:00 PM 39.8847 -85.2131 80° East 191 220 13,000  Level Indianapolis Center
Thu 04:40:03 PM 39.8881 -85.1406 87° East 200 230 13,000  Level Indianapolis Center
Thu 04:41:05 PM 39.8939 -85.0528 85° East 202 232 13,000  Level Indianapolis Center
Thu 04:42:07 PM 39.8975 -84.9803 86° East 203 234 13,000  Level Indianapolis Center
Thu 04:43:09 PM 39.8992 -84.9069 88° East 203 234 13,000  Level Indianapolis Center
Thu 04:44:11 PM 39.9050 -84.8306 84° East 203 234 13,000  Level Indianapolis Center
Thu 04:45:13 PM 39.9250 -84.7642 69° East 198 228 13,000  Level Indianapolis Center
Thu 04:46:15 PM 39.9528 -84.7008 60° Northeast 200 230 13,000  Level Indianapolis Center
Thu 04:47:17 PM 39.9747 -84.6342 67° East 201 231 13,000  Level Indianapolis Center
Thu 04:48:19 PM 40.0019 -84.5550 66° East 200 230 13,000  Level Indianapolis Center
Thu 04:49:21 PM 40.0247 -84.4889 66° East 200 230 13,000  Level Indianapolis Center
Thu 04:50:23 PM 40.0475 -84.4228 66° East 200 230 13,000  Level Indianapolis Center
Thu 04:51:25 PM 40.0708 -84.3561 65° Northeast 201 231 13,000  Level Indianapolis Center
Thu 04:52:27 PM 40.0944 -84.2908 65° Northeast 200 230 13,000  Level Indianapolis Center
Thu 04:53:29 PM 40.1164 -84.2250 66° East 198 228 13,000  Level Indianapolis Center
Thu 04:54:31 PM 40.1400 -84.1594 65° Northeast 199 229 13,000  Level Indianapolis Center
Thu 04:55:34 PM 40.1667 -84.0808 66° East 198 228 13,000  Level Indianapolis Center
Thu 04:56:36 PM 40.1894 -84.0144 66° East 200 230 13,000  Level Indianapolis Center
Thu 04:57:38 PM 40.2131 -83.9483 65° Northeast 200 230 13,000  Level Indianapolis Center
Thu 04:58:40 PM 40.2347 -83.8828 67° East 198 228 13,000  Level Indianapolis Center
Thu 04:59:42 PM 40.2572 -83.8167 66° East 198 228 13,000  Level Indianapolis Center
Thu 05:00:44 PM 40.2794 -83.7489 67° East 201 231 13,000  Level Indianapolis Center
Thu 05:01:46 PM 40.3072 -83.6706 65° Northeast 198 228 13,000  Level Indianapolis Center
Thu 05:02:48 PM 40.3292 -83.6039 67° East 199 229 13,000  Level Indianapolis Center
Thu 05:03:50 PM 40.3517 -83.5364 66° East 200 230 13,000  Level Indianapolis Center
Thu 05:04:52 PM 40.3742 -83.4697 66° East 201 231 13,000  Level Indianapolis Center
Thu 05:05:54 PM 40.3975 -83.4022 66° East 202 232 13,000  Level Indianapolis Center
Thu 05:06:56 PM 40.4194 -83.3347 67° East 201 231 13,000  Level Indianapolis Center
Thu 05:07:58 PM 40.4469 -83.2550 66° East 200 230 13,000 48 Level Indianapolis Center
Thu 05:09:00 PM 40.4681 -83.1892 67° East 196 226 13,100 48 Climbing Indianapolis Center
Thu 05:10:02 PM 40.4908 -83.1239 65° Northeast 197 227 13,100  Level Indianapolis Center
Thu 05:11:05 PM 40.5122 -83.0578 67° East 197 227 13,100  Level Indianapolis Center
Thu 05:12:07 PM 40.5206 -82.9778 82° East 198 228 13,100  Level Indianapolis Center
Thu 05:13:09 PM 40.5297 -82.9064 80° East 197 227 13,100  Level Indianapolis Center
Thu 05:14:11 PM 40.5397 -82.8344 80° East 197 227 13,100 -48 Level Indianapolis Center
Thu 05:15:13 PM 40.5500 -82.7617 79° East 200 230 13,000 -290 Descending Indianapolis Center
Thu 05:16:15 PM 40.5597 -82.6881 80° East 203 234 12,500 -532 Descending Indianapolis Center
Thu 05:17:17 PM 40.5692 -82.6133 81° East 205 236 11,900 -629 Descending Indianapolis Center
Thu 05:18:19 PM 40.5806 -82.5264 80° East 205 236 11,200 -581 Descending Indianapolis Center
Thu 05:19:21 PM 40.5911 -82.4522 79° East 206 237 10,700 -484 Descending Indianapolis Center
Thu 05:20:23 PM 40.6003 -82.3808 80° East 198 228 10,200 -484 Descending Indianapolis Center
Thu 05:21:25 PM 40.6092 -82.3106 81° East 196 226 9,700 -484 Descending Indianapolis Center
Thu 05:22:27 PM 40.6189 -82.2408 80° East 193 222 9,200 -369 Descending Indianapolis Center
Thu 05:24:24 PM 40.6344 -82.1047 81° East 181 208 8,600 -369 Descending Cleveland Center
Thu 05:25:26 PM 40.6611 -82.0439 60° Northeast 192 221 8,100 -484 Descending Cleveland Center
Thu 05:26:28 PM 40.6883 -81.9847 59° Northeast 189 217 7,600 -480 Descending Cleveland Center
Thu 05:27:31 PM 40.7169 -81.9269 57° Northeast 189 217 7,100 -480 Descending Cleveland Center
Thu 05:28:33 PM 40.7436 -81.8667 60° Northeast 189 217 6,600 -532 Descending Cleveland Center
Thu 05:29:35 PM 40.7764 -81.7986 58° Northeast 188 216 6,000 -290 Descending Cleveland Center
Thu 05:30:37 PM 40.8033 -81.7419 58° Northeast 182 209 6,000  Level Cleveland Center
Thu 05:31:39 PM 40.8283 -81.6894 58° Northeast 171 197 6,000 -194 Level Cleveland Center
Thu 05:32:41 PM 40.8542 -81.6339 58° Northeast 174 200 5,600 -435 Descending Cleveland Center
Thu 05:33:43 PM 40.8903 -81.5908 42° Northeast 182 209 5,100 -484 Descending Cleveland Center
Thu 05:34:45 PM 40.9333 -81.5575 30° Northeast 178 205 4,600 -484 Descending Cleveland Center
Thu 05:35:47 PM 40.9756 -81.5253 30° Northeast 175 201 4,100 -532 Descending Cleveland Center
Thu 05:36:49 PM 41.0258 -81.4858 31° Northeast 178 205 3,500 -528 Descending Cleveland Center
Thu 05:37:52 PM 41.0528 -81.4406 52° Northeast 181 208 3,000 -240 Descending Cleveland Center
Thu 05:38:54 PM 41.0147 -81.4361 175° South 161 185 3,000 -339 Level Cleveland Center
Thu 05:39:56 PM 40.9767 -81.4367 181° South 144 166 2,300 -677 Descending Cleveland Center
Thu 05:40:58 PM 40.9436 -81.4383 182° South 128 147 1,600 -435 Descending Cleveland Center
Thu 05:42:00 PM 40.9081 -81.4403 182° South 124 143 1,400 -194 Descending Cleveland Center

Login

Don't have an account? Register now (free) for customized features, flight alerts, and more!